createdAt,value
2022-11-22T00:01:26.357Z,2.40
2022-11-22T00:03:53.726Z,2.40
2022-11-22T00:06:20.994Z,2.50
2022-11-22T00:08:48.613Z,2.40
2022-11-22T00:11:15.649Z,2.50
2022-11-22T00:13:43.035Z,2.40
2022-11-22T00:16:12.877Z,2.50
2022-11-22T00:18:40.619Z,2.50
2022-11-22T00:21:08.162Z,2.50
2022-11-22T00:23:38.311Z,2.60
2022-11-22T00:26:12.202Z,2.40
2022-11-22T00:28:42.186Z,2.50
2022-11-22T00:31:09.348Z,2.30
2022-11-22T00:33:43.701Z,2.30
2022-11-22T00:36:10.847Z,2.40
2022-11-22T00:38:38.220Z,2.40
2022-11-22T00:41:10.341Z,2.50
2022-11-22T00:43:40.309Z,2.50
2022-11-22T00:46:07.450Z,2.60
2022-11-22T00:48:36.188Z,2.50
2022-11-22T00:51:05.542Z,2.50
2022-11-22T00:53:35.033Z,2.40
2022-11-22T00:56:02.179Z,2.40
2022-11-22T00:58:29.729Z,2.40
2022-11-22T01:00:57.178Z,2.40
2022-11-22T01:03:27.177Z,2.50
2022-11-22T01:05:56.701Z,2.40
2022-11-22T01:08:26.276Z,2.30
2022-11-22T01:11:00.594Z,2.20
2022-11-22T01:13:33.315Z,2.20
2022-11-22T01:16:07.247Z,2.20
2022-11-22T01:18:35.346Z,2.20
2022-11-22T01:21:02.867Z,2.30
2022-11-22T01:23:33.885Z,2.40
2022-11-22T01:26:01.890Z,2.40
2022-11-22T01:28:31.849Z,2.40
2022-11-22T01:30:59.032Z,2.50
2022-11-22T01:33:28.642Z,2.50
2022-11-22T01:35:55.820Z,2.50
2022-11-22T01:38:23.157Z,2.50
2022-11-22T01:40:50.320Z,2.50
2022-11-22T01:43:25.420Z,2.50
2022-11-22T01:45:57.267Z,2.50
2022-11-22T01:48:34.444Z,2.50
2022-11-22T01:51:09.372Z,2.40
2022-11-22T01:53:39.837Z,2.20
2022-11-22T01:56:13.649Z,2.20
2022-11-22T01:58:43.622Z,2.20
2022-11-22T02:01:11.556Z,2.30
2022-11-22T02:03:47.401Z,2.10
2022-11-22T02:06:17.681Z,2.10
2022-11-22T02:09:00.680Z,2.20
2022-11-22T02:11:33.906Z,2.30
2022-11-22T02:14:02.565Z,2.30
2022-11-22T02:16:30.122Z,2.40
2022-11-22T02:18:57.602Z,2.40
2022-11-22T02:21:28.546Z,2.30
2022-11-22T02:24:09.714Z,2.30
2022-11-22T02:26:37.349Z,2.30
2022-11-22T02:29:07.788Z,2.30
2022-11-22T02:31:47.163Z,2.40
2022-11-22T02:34:14.954Z,2.40
2022-11-22T02:36:47.416Z,2.40
2022-11-22T02:39:20.359Z,2.50
2022-11-22T02:41:48.741Z,2.50
2022-11-22T02:44:18.036Z,2.60
2022-11-22T02:46:50.937Z,2.50
2022-11-22T02:49:24.415Z,2.40
2022-11-22T02:51:52.956Z,2.30
2022-11-22T02:54:20.869Z,2.30
2022-11-22T02:56:50.356Z,2.30
2022-11-22T02:59:20.718Z,2.20
2022-11-22T03:01:50.643Z,2.40
2022-11-22T03:04:27.010Z,2.30
2022-11-22T03:06:59.199Z,2.30
2022-11-22T03:09:27.566Z,2.20
2022-11-22T03:11:55.226Z,2.30
2022-11-22T03:14:25.725Z,2.40
2022-11-22T03:16:55.193Z,2.40
2022-11-22T03:19:25.074Z,2.50
2022-11-22T03:21:54.966Z,2.40
2022-11-22T03:24:22.359Z,2.50
2022-11-22T03:26:58.821Z,2.40
2022-11-22T03:29:26.268Z,2.50
2022-11-22T03:31:56.626Z,2.50
2022-11-22T03:34:24.041Z,2.50
2022-11-22T03:36:51.236Z,2.50
2022-11-22T03:39:25.889Z,2.50
2022-11-22T03:41:56.376Z,2.60
2022-11-22T03:44:24.013Z,2.60
2022-11-22T03:46:51.316Z,2.60
2022-11-22T03:49:18.803Z,2.60
2022-11-22T03:51:48.134Z,2.40
2022-11-22T03:54:15.665Z,2.40
2022-11-22T03:56:42.894Z,2.40
2022-11-22T03:59:10.275Z,2.40
2022-11-22T04:01:37.435Z,2.50
2022-11-22T04:04:05.390Z,2.50
2022-11-22T04:06:38.460Z,2.50
2022-11-22T04:09:06.273Z,2.50
2022-11-22T04:11:35.817Z,2.50
2022-11-22T04:14:24.690Z,2.60
2022-11-22T04:16:56.540Z,2.60
2022-11-22T04:19:23.908Z,2.60
2022-11-22T04:21:51.190Z,2.50
2022-11-22T04:24:37.152Z,2.60
2022-11-22T04:27:04.318Z,2.60
2022-11-22T04:29:33.875Z,2.60
2022-11-22T04:32:19.516Z,2.40
2022-11-22T04:34:47.215Z,2.40
2022-11-22T04:37:14.473Z,2.40
2022-11-22T04:39:44.012Z,2.40
2022-11-22T04:42:31.809Z,2.50
2022-11-22T04:44:59.156Z,2.50
2022-11-22T04:47:52.873Z,2.50
2022-11-22T04:50:41.225Z,2.50
2022-11-22T04:53:08.489Z,2.50
2022-11-22T04:55:42.941Z,2.60
2022-11-22T04:58:13.474Z,2.60
2022-11-22T05:00:43.607Z,2.60
2022-11-22T05:03:10.951Z,2.60
2022-11-22T05:05:43.077Z,2.70
2022-11-22T05:08:11.941Z,2.60
2022-11-22T05:10:57.984Z,2.70
2022-11-22T05:13:35.880Z,2.70
2022-11-22T05:16:07.607Z,2.70
2022-11-22T05:18:37.299Z,2.80
2022-11-22T05:21:10.329Z,2.80
2022-11-22T05:23:55.844Z,2.80
2022-11-22T05:26:42.079Z,2.80
2022-11-22T05:29:10.910Z,2.90
2022-11-22T05:31:40.130Z,3.00
2022-11-22T05:34:07.298Z,3.00
2022-11-22T05:36:37.664Z,3.00
2022-11-22T05:39:04.777Z,2.90
2022-11-22T05:41:34.380Z,3.00
2022-11-22T05:44:04.003Z,3.00
2022-11-22T05:46:33.380Z,3.00
2022-11-22T05:49:00.458Z,2.90
2022-11-22T05:51:34.854Z,2.90
2022-11-22T05:54:09.188Z,2.90
2022-11-22T05:56:36.766Z,2.90
2022-11-22T05:59:04.523Z,2.90
2022-11-22T06:01:34.073Z,2.90
2022-11-22T06:04:01.304Z,2.90
2022-11-22T06:06:28.649Z,2.80
2022-11-22T06:08:59.670Z,2.80
2022-11-22T06:11:28.208Z,2.80
2022-11-22T06:13:58.680Z,2.80
2022-11-22T06:16:34.536Z,2.90
2022-11-22T06:19:01.820Z,2.90
2022-11-22T06:21:29.258Z,2.90
2022-11-22T06:23:56.624Z,3.00
2022-11-22T06:26:24.692Z,3.00
2022-11-22T06:28:52.116Z,3.10
2022-11-22T06:31:25.018Z,3.00
2022-11-22T06:33:57.294Z,3.00
2022-11-22T06:36:25.897Z,3.00
2022-11-22T06:38:53.582Z,3.00
2022-11-22T06:41:24.485Z,3.00
2022-11-22T06:43:53.100Z,3.10
2022-11-22T06:46:22.668Z,3.10
2022-11-22T06:48:52.428Z,3.10
2022-11-22T06:51:22.819Z,3.10
2022-11-22T06:53:55.355Z,3.10
2022-11-22T06:56:26.481Z,3.20
2022-11-22T06:58:59.085Z,3.10
2022-11-22T07:01:29.218Z,3.10
2022-11-22T07:03:58.793Z,3.10
2022-11-22T07:06:28.591Z,3.20
2022-11-22T07:09:01.601Z,3.20
2022-11-22T07:11:31.237Z,3.20
2022-11-22T07:14:05.348Z,3.20
2022-11-22T07:16:36.100Z,3.20
2022-11-22T07:19:03.457Z,3.20
2022-11-22T07:21:33.491Z,3.20
2022-11-22T07:24:00.725Z,3.20
2022-11-22T07:26:30.286Z,3.30
2022-11-22T07:28:57.330Z,3.30
2022-11-22T07:31:27.130Z,3.30
2022-11-22T07:33:57.839Z,3.30
2022-11-22T07:36:28.685Z,3.30
2022-11-22T07:38:56.463Z,3.20
2022-11-22T07:41:23.977Z,3.30
2022-11-22T07:43:54.125Z,3.30
2022-11-22T07:46:34.159Z,3.30
2022-11-22T07:49:02.629Z,3.40
2022-11-22T07:51:33.123Z,3.30
2022-11-22T07:54:07.404Z,3.40
2022-11-22T07:56:37.293Z,3.50
2022-11-22T07:59:04.393Z,3.50
2022-11-22T08:01:36.585Z,3.50
2022-11-22T08:04:04.340Z,3.50
2022-11-22T08:06:34.327Z,3.60
2022-11-22T08:09:02.411Z,3.70
2022-11-22T08:11:35.177Z,3.60
2022-11-22T08:14:07.752Z,3.60
2022-11-22T08:16:35.321Z,3.70
2022-11-22T08:19:04.687Z,3.70
2022-11-22T08:21:32.034Z,3.70
2022-11-22T08:23:59.307Z,3.70
2022-11-22T08:26:26.822Z,3.70
2022-11-22T08:28:56.462Z,3.70
2022-11-22T08:31:26.161Z,3.70
2022-11-22T08:33:55.785Z,3.70
2022-11-22T08:36:28.063Z,3.70
2022-11-22T08:38:58.505Z,3.70
2022-11-22T08:41:28.360Z,3.70
2022-11-22T08:43:58.615Z,3.80
2022-11-22T08:46:29.589Z,3.70
2022-11-22T08:48:56.774Z,3.70
2022-11-22T08:51:26.712Z,3.70
2022-11-22T08:53:56.508Z,3.70
2022-11-22T08:56:26.018Z,3.70
2022-11-22T08:58:54.493Z,3.70
2022-11-22T09:01:24.324Z,3.80
2022-11-22T09:03:51.472Z,3.80
2022-11-22T09:12:04.276Z,3.70
2022-11-22T09:14:31.442Z,3.80
2022-11-22T09:16:59.259Z,3.70
2022-11-22T09:19:26.493Z,3.70
2022-11-22T09:21:56.489Z,3.70
2022-11-22T09:24:28.436Z,3.80
2022-11-22T09:27:00.836Z,3.80
2022-11-22T09:29:28.233Z,3.90
2022-11-22T09:31:56.136Z,4.00
2022-11-22T09:34:28.527Z,4.00
2022-11-22T09:36:58.376Z,4.10
2022-11-22T09:39:25.435Z,4.20
2022-11-22T09:42:20.589Z,4.30
2022-11-22T09:45:08.189Z,4.40
2022-11-22T09:47:57.361Z,4.40
2022-11-22T09:50:55.400Z,4.40
2022-11-22T09:53:37.942Z,4.50
2022-11-22T09:56:14.432Z,4.40
2022-11-22T09:59:22.668Z,4.60
2022-11-22T10:02:18.712Z,4.60
2022-11-22T10:04:57.314Z,4.70
2022-11-22T10:07:36.612Z,4.70
2022-11-22T10:10:25.032Z,4.80
2022-11-22T10:13:05.696Z,4.80
2022-11-22T10:15:57.013Z,4.90
2022-11-22T10:18:45.446Z,4.90
2022-11-22T10:21:14.621Z,4.80
2022-11-22T10:23:43.366Z,4.80
2022-11-22T10:26:29.446Z,4.70
2022-11-22T10:29:10.482Z,4.80
2022-11-22T10:31:43.688Z,4.70
2022-11-22T10:34:53.248Z,4.70
2022-11-22T10:37:35.994Z,4.60
2022-11-22T10:40:26.024Z,4.70
2022-11-22T10:43:08.440Z,4.60
2022-11-22T10:45:58.418Z,4.60
2022-11-22T10:48:56.048Z,4.60
2022-11-22T10:51:55.439Z,4.60
2022-11-22T10:54:56.470Z,4.70
2022-11-22T10:57:37.716Z,4.70
2022-11-22T11:00:25.634Z,4.70
2022-11-22T11:03:14.602Z,4.70
2022-11-22T11:06:21.767Z,4.80
2022-11-22T11:09:47.652Z,4.70
2022-11-22T11:11:44.853Z,4.70
2022-11-22T11:14:34.315Z,4.70
2022-11-22T11:17:03.408Z,4.70
2022-11-22T11:19:40.127Z,4.70
2022-11-22T11:22:09.833Z,4.70
2022-11-22T11:24:40.679Z,4.80
2022-11-22T11:27:16.477Z,4.80
2022-11-22T11:29:47.850Z,4.80
2022-11-22T11:32:22.041Z,4.90
2022-11-22T11:34:57.615Z,4.90
2022-11-22T11:37:34.768Z,4.90
2022-11-22T11:40:06.814Z,4.90
2022-11-22T11:42:39.785Z,4.90
2022-11-22T11:45:33.083Z,5.00
2022-11-22T11:48:00.453Z,5.00
2022-11-22T11:50:35.218Z,5.10
2022-11-22T11:53:15.380Z,5.10
2022-11-22T11:55:42.889Z,5.10
2022-11-22T11:58:21.992Z,5.10
2022-11-22T12:00:50.125Z,4.90
2022-11-22T12:03:22.409Z,4.80
2022-11-22T12:06:13.421Z,4.80
2022-11-22T12:08:47.951Z,4.80
2022-11-22T12:11:24.154Z,4.90
2022-11-22T12:16:50.395Z,5.00
2022-11-22T12:19:51.505Z,5.00
2022-11-22T12:22:48.896Z,5.00
2022-11-22T12:25:36.100Z,5.00
2022-11-22T12:28:27.487Z,5.10
2022-11-22T12:31:14.790Z,5.10
2022-11-22T12:33:45.820Z,4.90
2022-11-22T12:36:20.929Z,4.80
2022-11-22T12:38:53.081Z,4.80
2022-11-22T12:41:22.926Z,4.70
2022-11-22T12:43:55.551Z,4.70
2022-11-22T12:46:41.256Z,4.70
2022-11-22T12:49:25.362Z,4.70
2022-11-22T12:52:15.376Z,4.60
2022-11-22T12:55:05.728Z,4.60
2022-11-22T12:57:41.196Z,4.60
2022-11-22T13:00:22.852Z,4.60
2022-11-22T13:03:03.657Z,4.60
2022-11-22T13:05:49.228Z,4.60
2022-11-22T13:08:53.987Z,4.60
2022-11-22T13:11:35.020Z,4.70
2022-11-22T13:14:12.470Z,4.70
2022-11-22T13:16:45.294Z,4.60
2022-11-22T13:19:19.643Z,4.70
2022-11-22T13:22:16.202Z,4.70
2022-11-22T13:25:28.763Z,4.60
2022-11-22T13:27:59.566Z,4.60
2022-11-22T13:30:31.070Z,4.50
2022-11-22T13:33:00.855Z,4.50
2022-11-22T13:35:35.640Z,4.50
2022-11-22T13:38:11.596Z,4.50
2022-11-22T13:40:45.023Z,4.50
2022-11-22T13:43:21.991Z,4.40
2022-11-22T13:45:58.303Z,4.40
2022-11-22T13:48:40.090Z,4.30
2022-11-22T13:51:14.772Z,4.40
2022-11-22T13:53:44.482Z,4.40
2022-11-22T13:56:21.080Z,4.40
2022-11-22T13:58:51.029Z,4.40
2022-11-22T14:01:36.788Z,4.30
2022-11-22T14:04:21.323Z,4.30
2022-11-22T14:07:10.455Z,4.20
2022-11-22T14:09:54.051Z,4.30
2022-11-22T14:12:52.159Z,4.30
2022-11-22T14:15:29.625Z,4.20
2022-11-22T14:18:19.921Z,4.10
2022-11-22T14:21:27.058Z,4.10
2022-11-22T14:24:09.315Z,4.00
2022-11-22T14:27:13.838Z,3.90
2022-11-22T14:29:55.805Z,3.80
2022-11-22T14:32:41.915Z,3.80
2022-11-22T14:35:24.783Z,3.70
2022-11-22T14:38:01.068Z,3.70
2022-11-22T14:40:44.900Z,3.70
2022-11-22T14:43:12.244Z,3.70
2022-11-22T14:46:01.334Z,3.70
2022-11-22T14:48:37.529Z,3.70
2022-11-22T14:51:07.076Z,3.60
2022-11-22T14:54:00.948Z,3.60
2022-11-22T14:56:36.851Z,3.60
2022-11-22T14:59:31.575Z,3.60
2022-11-22T15:02:05.179Z,3.70
2022-11-22T15:09:14.564Z,3.60
2022-11-22T15:09:17.681Z,3.60
2022-11-22T15:11:35.495Z,3.60
2022-11-22T15:14:14.893Z,3.50
2022-11-22T15:59:43.304Z,3.50
2022-11-22T16:02:21.231Z,3.40
2022-11-22T16:06:03.607Z,3.40
2022-11-22T16:07:51.225Z,3.40
2022-11-22T16:10:33.515Z,3.30
2022-11-22T16:13:13.270Z,3.30
2022-11-22T16:15:40.797Z,3.30
2022-11-22T16:18:27.126Z,3.20
2022-11-22T16:21:00.535Z,3.20
2022-11-22T16:23:37.306Z,3.20
2022-11-22T16:26:24.661Z,3.20
2022-11-22T16:28:54.336Z,3.20
2022-11-22T16:31:30.421Z,3.30
2022-11-22T16:33:58.445Z,3.30
2022-11-22T16:36:29.982Z,3.30
2022-11-22T16:38:59.637Z,3.30
2022-11-22T16:41:30.021Z,3.30
2022-11-22T16:44:11.340Z,3.30
2022-11-22T16:46:41.368Z,3.40
2022-11-22T16:49:22.764Z,3.40
2022-11-22T16:51:53.277Z,3.40
2022-11-22T16:54:23.794Z,3.40
2022-11-22T16:56:51.394Z,3.40
2022-11-22T16:59:23.209Z,3.30
2022-11-22T17:01:50.566Z,3.30
2022-11-22T17:04:27.628Z,3.30
2022-11-22T17:06:55.259Z,3.30
2022-11-22T17:09:27.320Z,3.30
2022-11-22T17:11:54.864Z,3.30
2022-11-22T17:14:24.229Z,3.20
2022-11-22T17:16:54.091Z,3.30
2022-11-22T17:22:17.341Z,3.20
2022-11-22T17:24:45.169Z,3.20
2022-11-22T17:27:14.123Z,3.20
2022-11-22T17:29:50.188Z,3.20
2022-11-22T17:32:19.924Z,3.20
2022-11-22T17:34:47.173Z,3.30
2022-11-22T17:37:15.285Z,3.20
2022-11-22T17:39:45.045Z,3.20
2022-11-22T17:42:12.451Z,3.30
2022-11-22T17:44:44.622Z,3.30
2022-11-22T17:47:16.868Z,3.40
2022-11-22T17:49:47.011Z,3.40
2022-11-22T17:52:19.517Z,3.40
2022-11-22T17:54:49.059Z,3.40
2022-11-22T17:57:17.143Z,3.50
2022-11-22T17:59:44.944Z,3.40
2022-11-22T18:02:14.605Z,3.40
2022-11-22T18:04:44.614Z,3.40
2022-11-22T18:07:12.266Z,3.40
2022-11-22T18:09:39.385Z,3.40
2022-11-22T18:12:06.922Z,3.40
2022-11-22T18:14:34.644Z,3.40
2022-11-22T18:17:04.198Z,3.40
2022-11-22T18:19:34.193Z,3.40
2022-11-22T18:22:01.888Z,3.40
2022-11-22T18:24:29.055Z,3.40
2022-11-22T18:26:56.631Z,3.50
2022-11-22T18:29:42.791Z,3.50
2022-11-22T18:32:11.597Z,3.40
2022-11-22T18:34:39.038Z,3.40
2022-11-22T18:37:08.833Z,3.40
2022-11-22T18:39:39.056Z,3.40
2022-11-22T18:42:10.232Z,3.30
2022-11-22T18:44:37.946Z,3.30
2022-11-22T18:47:07.929Z,3.30
2022-11-22T18:49:35.551Z,3.30
2022-11-22T18:52:03.676Z,3.30
2022-11-22T18:54:31.233Z,3.30
2022-11-22T18:56:59.082Z,3.40
2022-11-22T18:59:26.318Z,3.40
2022-11-22T19:01:56.112Z,3.40
2022-11-22T19:04:26.293Z,3.40
2022-11-22T19:06:56.457Z,3.50
2022-11-22T19:09:23.825Z,3.50
2022-11-22T19:11:58.420Z,3.40
2022-11-22T19:14:31.153Z,3.40
2022-11-22T19:17:06.029Z,3.40
2022-11-22T19:19:33.590Z,3.40
2022-11-22T19:22:10.842Z,3.40
2022-11-22T19:24:38.395Z,3.50
2022-11-22T19:27:08.352Z,3.40
2022-11-22T19:29:36.438Z,3.50
2022-11-22T19:32:06.414Z,3.50
2022-11-22T19:34:35.873Z,3.50
2022-11-22T19:37:03.635Z,3.50
2022-11-22T19:39:33.302Z,3.60
2022-11-22T19:42:04.109Z,3.60
2022-11-22T19:44:38.846Z,3.70
2022-11-22T19:47:09.271Z,3.60
2022-11-22T19:49:36.466Z,3.60
2022-11-22T19:52:07.169Z,3.60
2022-11-22T19:54:37.103Z,3.50
2022-11-22T19:57:04.580Z,3.50
2022-11-22T19:59:34.300Z,3.60
2022-11-22T20:02:02.278Z,3.50
2022-11-22T20:04:35.423Z,3.50
2022-11-22T20:07:05.954Z,3.50
2022-11-22T20:09:37.189Z,3.50
2022-11-22T20:12:07.303Z,3.50
2022-11-22T20:14:36.869Z,3.50
2022-11-22T20:17:07.502Z,3.50
2022-11-22T20:19:35.287Z,3.60
2022-11-22T20:22:05.379Z,3.60
2022-11-22T20:24:33.048Z,3.60
2022-11-22T20:27:02.554Z,3.60
2022-11-22T20:29:29.931Z,3.70
2022-11-22T20:32:01.740Z,3.70
2022-11-22T20:34:33.469Z,3.70
2022-11-22T20:37:03.678Z,3.60
2022-11-22T20:39:35.490Z,3.60
2022-11-22T20:42:32.496Z,3.60
2022-11-22T20:44:51.782Z,3.60
2022-11-22T20:47:19.193Z,3.60
2022-11-22T20:49:50.888Z,3.60
2022-11-22T20:52:18.614Z,3.70
2022-11-22T20:54:45.847Z,3.70
2022-11-22T20:57:13.435Z,3.70
2022-11-22T20:59:40.758Z,3.80
2022-11-22T21:02:13.071Z,3.80
2022-11-22T21:04:42.839Z,3.80
2022-11-22T21:07:15.907Z,3.70
2022-11-22T21:09:43.109Z,3.80
2022-11-22T21:12:13.486Z,3.80
2022-11-22T21:14:41.563Z,3.80
2022-11-22T21:17:39.391Z,3.80
2022-11-22T21:20:04.021Z,3.70
2022-11-22T21:22:36.452Z,3.80
2022-11-22T21:25:04.243Z,3.70
2022-11-22T21:27:32.016Z,3.70
2022-11-22T21:29:59.489Z,3.80
2022-11-22T21:32:36.926Z,3.80
2022-11-22T21:35:13.498Z,3.70
2022-11-22T21:37:42.496Z,3.70
2022-11-22T21:40:14.537Z,3.70
2022-11-22T21:42:45.114Z,3.70
2022-11-22T21:45:17.677Z,3.70
2022-11-22T21:47:48.281Z,3.70
2022-11-22T21:50:16.024Z,3.70
2022-11-22T21:52:44.061Z,3.70
2022-11-22T21:55:15.392Z,3.80
2022-11-22T21:57:46.105Z,3.80
2022-11-22T22:00:18.449Z,3.80
2022-11-22T22:02:49.283Z,3.70
2022-11-22T22:05:17.724Z,3.70
2022-11-22T22:08:03.297Z,3.80
2022-11-22T22:10:33.722Z,3.80
2022-11-22T22:13:01.436Z,3.80
2022-11-22T22:15:34.306Z,3.80
2022-11-22T22:18:03.728Z,3.80
2022-11-22T22:20:35.465Z,3.70
2022-11-22T22:23:05.920Z,3.70
2022-11-22T22:25:33.777Z,3.70
2022-11-22T22:28:01.320Z,3.70
2022-11-22T22:30:31.799Z,3.70
2022-11-22T22:33:03.960Z,3.70
2022-11-22T22:35:47.563Z,3.70
2022-11-22T22:38:15.973Z,3.80
2022-11-22T22:40:44.189Z,3.80
2022-11-22T22:43:12.284Z,3.70
2022-11-22T22:45:39.705Z,3.80
2022-11-22T22:48:09.543Z,3.80
2022-11-22T22:50:39.174Z,3.90
2022-11-22T22:53:09.181Z,3.90
2022-11-22T22:55:38.837Z,3.80
2022-11-22T22:58:07.704Z,3.80
2022-11-22T23:00:40.077Z,3.80
2022-11-22T23:03:09.738Z,3.90
2022-11-22T23:05:43.102Z,3.90
2022-11-22T23:08:13.139Z,3.80
2022-11-22T23:10:42.100Z,3.80
2022-11-22T23:13:13.639Z,3.80
2022-11-22T23:15:57.306Z,3.90
2022-11-22T23:18:29.386Z,3.80
2022-11-22T23:21:00.864Z,3.80
2022-11-22T23:23:29.698Z,3.80
2022-11-22T23:26:11.053Z,3.80
2022-11-22T23:28:41.065Z,3.80
2022-11-22T23:31:11.353Z,3.70
2022-11-22T23:33:39.139Z,3.80
2022-11-22T23:36:11.534Z,3.80
2022-11-22T23:38:42.587Z,3.80
2022-11-22T23:41:14.030Z,3.80
2022-11-22T23:43:42.478Z,3.70
2022-11-22T23:46:17.953Z,3.70
2022-11-22T23:48:50.532Z,3.70
2022-11-22T23:51:17.601Z,3.70
2022-11-22T23:53:45.257Z,3.70
2022-11-22T23:56:21.553Z,3.70
2022-11-22T23:58:52.607Z,3.70
